Time;durP1;ratioP1;P1;durP2;ratioP2;P2;SDS_P1;SDS_P2;PMS_P1;PMS_P2;Temp;Humidity;BMP_temperature;BMP_pressure;BME280_temperature;BME280_humidity;BME280_pressure;Samples;Min_cycle;Max_cycle;Signal;HPM_P1;HPM_P2
2024/01/10 00:02:30;;;;;;;15.50;9.10;;;3.00;93.00;;;;;;5084165;28;20660;-80
2024/01/10 00:05:00;;;;;;;16.80;9.17;;;3.00;92.80;;;;;;5085703;28;20331;-81
2024/01/10 00:07:30;;;;;;;13.40;8.90;;;3.00;92.80;;;;;;5085920;28;20211;-81
2024/01/10 00:10:01;;;;;;;14.50;7.93;;;3.00;92.80;;;;;;5088791;28;20281;-81
2024/01/10 00:12:35;;;;;;;14.33;8.47;;;3.00;92.90;;;;;;5082515;28;20536;-81
2024/01/10 00:15:06;;;;;;;15.00;8.63;;;3.00;92.90;;;;;;5075750;28;20214;-80
2024/01/10 00:17:37;;;;;;;13.70;8.07;;;2.90;92.90;;;;;;5086968;28;20671;-81
2024/01/10 00:20:08;;;;;;;12.53;8.30;;;2.90;92.90;;;;;;5074163;28;20646;-81
2024/01/10 00:22:39;;;;;;;16.53;8.53;;;2.90;93.00;;;;;;5082584;28;20206;-81
2024/01/10 00:25:10;;;;;;;13.97;8.47;;;2.90;92.90;;;;;;5069917;28;20679;-81
2024/01/10 00:27:39;;;;;;;16.07;7.63;;;2.90;93.00;;;;;;5086735;28;20212;-81
2024/01/10 00:30:09;;;;;;;14.40;7.70;;;2.90;93.00;;;;;;5075621;28;20234;-81
2024/01/10 00:32:38;;;;;;;13.13;8.17;;;2.90;93.00;;;;;;5078306;28;20207;-81
2024/01/10 00:35:10;;;;;;;14.80;8.37;;;2.90;93.00;;;;;;5085999;28;20300;-81
2024/01/10 00:37:46;;;;;;;15.33;8.67;;;2.90;92.80;;;;;;5081330;28;20205;-80
2024/01/10 00:40:16;;;;;;;15.20;7.90;;;2.90;92.70;;;;;;5076895;28;20260;-81
2024/01/10 00:42:47;;;;;;;13.80;7.67;;;2.90;92.60;;;;;;5081183;28;20274;-81
2024/01/10 00:45:18;;;;;;;14.47;8.40;;;2.90;92.60;;;;;;5092136;28;20235;-80
2024/01/10 00:47:51;;;;;;;12.73;8.43;;;2.90;92.60;;;;;;5090702;28;20227;-81
2024/01/10 00:50:21;;;;;;;15.33;8.40;;;2.90;92.60;;;;;;5087774;28;20216;-81
2024/01/10 00:52:51;;;;;;;12.60;7.67;;;2.90;92.70;;;;;;5092420;28;20297;-81
2024/01/10 00:55:21;;;;;;;14.30;8.67;;;2.80;92.60;;;;;;5101198;28;20238;-80
2024/01/10 00:57:55;;;;;;;12.10;7.93;;;2.80;92.50;;;;;;5088528;28;20245;-82
2024/01/10 01:00:27;;;;;;;13.27;8.07;;;2.80;92.60;;;;;;5092418;28;20200;-80
2024/01/10 01:02:57;;;;;;;13.23;7.77;;;2.80;92.70;;;;;;5084737;28;20226;-81
2024/01/10 01:05:30;;;;;;;14.83;7.23;;;2.70;92.70;;;;;;5083989;28;20196;-81
2024/01/10 01:08:00;;;;;;;12.27;7.73;;;2.70;92.70;;;;;;5070571;28;20294;-82
2024/01/10 01:10:30;;;;;;;13.90;7.80;;;2.70;92.80;;;;;;5096224;28;20284;-80
2024/01/10 01:13:04;;;;;;;12.37;7.37;;;2.70;92.80;;;;;;5086324;28;20533;-81
2024/01/10 01:15:36;;;;;;;11.93;8.13;;;2.70;92.90;;;;;;5086999;28;20204;-80
2024/01/10 01:18:06;;;;;;;12.03;8.63;;;2.70;92.80;;;;;;5080655;28;20224;-81
2024/01/10 01:20:38;;;;;;;13.33;7.60;;;2.70;92.80;;;;;;5088094;28;20199;-81
2024/01/10 01:23:08;;;;;;;12.10;7.10;;;2.70;92.70;;;;;;5103732;28;20207;-80
2024/01/10 01:25:40;;;;;;;9.73;7.83;;;2.70;93.00;;;;;;5079092;28;20261;-81
2024/01/10 01:28:11;;;;;;;11.87;7.03;;;2.70;92.70;;;;;;5083495;28;20645;-81
2024/01/10 01:30:41;;;;;;;13.07;7.83;;;2.70;92.70;;;;;;5067504;28;20299;-81
2024/01/10 01:33:16;;;;;;;14.93;8.10;;;2.70;92.70;;;;;;5069098;28;20228;-81
2024/01/10 01:35:46;;;;;;;10.30;7.27;;;2.70;92.80;;;;;;5085599;28;20207;-81
2024/01/10 01:38:16;;;;;;;15.27;8.20;;;2.60;92.80;;;;;;5088193;28;20673;-80
2024/01/10 01:40:45;;;;;;;10.87;6.97;;;2.60;93.00;;;;;;5091961;28;20214;-81
2024/01/10 01:43:25;;;;;;;14.83;7.80;;;2.60;93.00;;;;;;5097662;28;20253;-81
2024/01/10 01:45:56;;;;;;;14.13;7.50;;;2.50;93.00;;;;;;5072923;28;20226;-81
2024/01/10 01:48:26;;;;;;;12.90;8.30;;;2.50;93.00;;;;;;5091998;28;20229;-81
2024/01/10 01:51:06;;;;;;;15.23;8.67;;;2.50;93.10;;;;;;5093160;28;20204;-81
2024/01/10 01:53:37;;;;;;;15.90;8.87;;;2.40;93.10;;;;;;5090119;28;20204;-80
2024/01/10 01:56:08;;;;;;;19.97;9.10;;;2.50;93.20;;;;;;5109516;27;20202;-80
2024/01/10 01:58:38;;;;;;;14.57;8.53;;;2.50;93.20;;;;;;5106584;28;20204;-81
2024/01/10 02:01:10;;;;;;;12.30;8.23;;;2.50;93.30;;;;;;5109570;28;20194;-80
2024/01/10 02:03:40;;;;;;;14.43;8.53;;;2.40;93.20;;;;;;5078138;27;20200;-81
2024/01/10 02:06:10;;;;;;;19.27;8.83;;;2.40;93.30;;;;;;5086687;28;20208;-81
2024/01/10 02:08:39;;;;;;;13.80;8.47;;;2.40;93.40;;;;;;5094777;28;20226;-80
2024/01/10 02:11:09;;;;;;;17.33;8.33;;;2.40;93.50;;;;;;5093906;27;20768;-80
2024/01/10 02:13:40;;;;;;;14.57;8.63;;;2.40;93.50;;;;;;5079708;28;20248;-80
2024/01/10 02:16:11;;;;;;;16.03;9.07;;;2.40;93.60;;;;;;5081804;28;20208;-81
2024/01/10 02:18:41;;;;;;;19.67;9.23;;;2.40;93.60;;;;;;5093068;28;20228;-81
2024/01/10 02:21:11;;;;;;;14.00;9.00;;;2.40;93.60;;;;;;5088462;28;20208;-80
2024/01/10 02:23:40;;;;;;;13.53;9.00;;;2.40;93.60;;;;;;5088817;28;20264;-80
2024/01/10 02:26:10;;;;;;;15.60;9.40;;;2.40;93.60;;;;;;5091216;28;20640;-80
2024/01/10 02:28:42;;;;;;;17.40;9.27;;;2.50;93.70;;;;;;5097146;28;20207;-81
2024/01/10 02:31:12;;;;;;;13.07;8.60;;;2.50;93.70;;;;;;5087106;28;20214;-81
2024/01/10 02:33:43;;;;;;;14.57;9.30;;;2.50;93.60;;;;;;5081329;28;20232;-80
2024/01/10 02:36:12;;;;;;;13.90;9.10;;;2.50;93.60;;;;;;5079507;28;20263;-80
2024/01/10 02:38:42;;;;;;;12.73;8.43;;;2.50;93.70;;;;;;5070211;28;20243;-80
2024/01/10 02:41:12;;;;;;;15.43;8.80;;;2.50;93.70;;;;;;5085973;28;20571;-82
2024/01/10 02:43:41;;;;;;;14.10;8.87;;;2.50;93.60;;;;;;5090141;28;20223;-81
2024/01/10 02:46:11;;;;;;;13.60;8.63;;;2.50;93.60;;;;;;5093917;28;20219;-80
2024/01/10 02:48:41;;;;;;;16.07;9.10;;;2.50;93.60;;;;;;5050454;28;20281;-80
2024/01/10 02:51:11;;;;;;;15.10;8.67;;;2.50;93.60;;;;;;5074579;28;20628;-81
2024/01/10 02:53:41;;;;;;;15.43;9.47;;;2.50;93.60;;;;;;5089028;28;20683;-80
2024/01/10 02:56:11;;;;;;;16.80;8.80;;;2.60;93.60;;;;;;5072713;28;20530;-80
2024/01/10 02:58:40;;;;;;;13.87;9.33;;;2.50;93.60;;;;;;5068014;28;20218;-81
2024/01/10 03:01:10;;;;;;;13.70;8.27;;;2.60;93.60;;;;;;5085874;28;20194;-81
2024/01/10 03:03:40;;;;;;;13.00;8.03;;;2.60;93.60;;;;;;5075695;28;20228;-80
2024/01/10 03:06:10;;;;;;;12.17;8.07;;;2.50;93.50;;;;;;5095166;28;20219;-80
2024/01/10 03:08:40;;;;;;;12.97;8.53;;;2.50;93.50;;;;;;5081978;28;20207;-81
2024/01/10 03:11:09;;;;;;;14.77;8.53;;;2.50;93.50;;;;;;5100627;28;20608;-81
2024/01/10 03:13:39;;;;;;;12.73;7.87;;;2.50;93.50;;;;;;5062397;28;20255;-80
2024/01/10 03:16:09;;;;;;;13.97;9.33;;;2.40;93.50;;;;;;5087723;28;20197;-80
2024/01/10 03:18:39;;;;;;;14.40;9.10;;;2.50;93.50;;;;;;5068983;28;20219;-80
2024/01/10 03:21:08;;;;;;;12.37;7.43;;;2.40;93.50;;;;;;5092847;28;20203;-81
2024/01/10 03:23:38;;;;;;;13.50;8.63;;;2.50;93.50;;;;;;5076253;28;20213;-81
2024/01/10 03:26:09;;;;;;;11.47;7.37;;;2.50;93.50;;;;;;5081929;28;20568;-81
2024/01/10 03:28:39;;;;;;;14.00;8.40;;;2.50;93.50;;;;;;5087570;28;20211;-80
2024/01/10 03:31:11;;;;;;;16.50;8.03;;;2.50;93.50;;;;;;5082292;28;20208;-80
2024/01/10 03:33:41;;;;;;;15.13;8.10;;;2.40;93.50;;;;;;5081997;28;20209;-81
2024/01/10 03:36:15;;;;;;;14.00;8.47;;;2.40;93.50;;;;;;5080406;28;20234;-80
2024/01/10 03:38:46;;;;;;;14.00;8.87;;;2.40;93.50;;;;;;5076254;28;20327;-81
2024/01/10 03:41:17;;;;;;;14.63;8.50;;;2.40;93.60;;;;;;5088242;28;20222;-81
2024/01/10 03:43:48;;;;;;;13.33;8.60;;;2.40;93.60;;;;;;5076759;28;20645;-81
2024/01/10 03:46:17;;;;;;;13.60;9.00;;;2.40;93.60;;;;;;5084741;28;20300;-80
2024/01/10 03:48:48;;;;;;;15.37;8.23;;;2.40;93.90;;;;;;5083038;28;20204;-80
2024/01/10 03:51:18;;;;;;;17.60;8.60;;;2.40;93.70;;;;;;5082875;28;20296;-80
2024/01/10 03:53:49;;;;;;;12.80;8.47;;;2.40;93.60;;;;;;5087447;28;20720;-80
2024/01/10 03:56:18;;;;;;;15.03;8.60;;;2.40;93.50;;;;;;5090136;28;20201;-81
2024/01/10 03:58:49;;;;;;;14.30;9.97;;;2.30;93.60;;;;;;5090013;28;20227;-80
2024/01/10 04:01:23;;;;;;;16.63;8.97;;;2.30;93.60;;;;;;5082838;28;20200;-81
2024/01/10 04:03:52;;;;;;;15.63;8.60;;;2.30;93.60;;;;;;5083226;28;20201;-81
2024/01/10 04:06:22;;;;;;;14.63;8.57;;;2.30;93.60;;;;;;5077346;28;20202;-81
2024/01/10 04:08:53;;;;;;;13.30;7.93;;;2.30;93.60;;;;;;5090640;28;20197;-81
2024/01/10 04:11:24;;;;;;;13.77;8.57;;;2.30;93.60;;;;;;5074192;28;20205;-81
2024/01/10 04:13:54;;;;;;;14.30;8.37;;;2.30;93.60;;;;;;5082086;28;20209;-81
2024/01/10 04:16:27;;;;;;;14.20;8.10;;;2.30;93.60;;;;;;5083605;28;20204;-81
2024/01/10 04:18:57;;;;;;;13.63;8.43;;;2.30;93.60;;;;;;5089794;28;20219;-80
2024/01/10 04:21:28;;;;;;;12.37;7.50;;;2.30;93.60;;;;;;5079828;28;20207;-80
2024/01/10 04:23:57;;;;;;;13.63;8.40;;;2.20;93.60;;;;;;5070914;28;20317;-80
2024/01/10 04:26:27;;;;;;;12.07;8.03;;;2.20;93.60;;;;;;5084376;28;20191;-80
2024/01/10 04:28:58;;;;;;;16.00;8.70;;;2.20;93.70;;;;;;5068106;28;20212;-80
2024/01/10 04:31:28;;;;;;;11.53;8.13;;;2.30;93.70;;;;;;5079286;28;20192;-80
2024/01/10 04:33:58;;;;;;;16.13;9.07;;;2.20;93.60;;;;;;5079634;28;20214;-80
2024/01/10 04:36:28;;;;;;;15.47;8.87;;;2.20;93.60;;;;;;5071680;28;20664;-80
2024/01/10 04:38:58;;;;;;;12.37;8.37;;;2.20;93.60;;;;;;5062276;28;20243;-80
2024/01/10 04:41:29;;;;;;;12.47;7.90;;;2.20;93.60;;;;;;5084892;28;20315;-80
2024/01/10 04:43:58;;;;;;;15.73;9.27;;;2.20;93.60;;;;;;5074469;28;20196;-80
2024/01/10 04:46:33;;;;;;;9.53;7.30;;;2.20;93.70;;;;;;5047774;28;20295;-80
2024/01/10 04:49:04;;;;;;;16.73;8.57;;;2.20;93.70;;;;;;5083196;28;20206;-80
2024/01/10 04:51:34;;;;;;;13.10;8.03;;;2.20;93.60;;;;;;5063479;28;20584;-80
2024/01/10 04:54:04;;;;;;;14.57;8.40;;;2.20;93.60;;;;;;5084346;28;20197;-80
2024/01/10 04:56:36;;;;;;;13.57;8.67;;;2.20;93.60;;;;;;5081695;28;20281;-80
2024/01/10 04:59:06;;;;;;;15.93;9.10;;;2.20;93.60;;;;;;5071330;28;20225;-80
2024/01/10 05:01:37;;;;;;;14.33;8.77;;;2.10;93.50;;;;;;5068454;28;20196;-80
2024/01/10 05:04:09;;;;;;;16.43;8.93;;;2.10;93.50;;;;;;5079782;28;20240;-81
2024/01/10 05:06:39;;;;;;;13.70;9.13;;;2.10;93.60;;;;;;5074789;28;20203;-80
2024/01/10 05:09:10;;;;;;;14.20;8.93;;;2.10;93.70;;;;;;5065501;28;20225;-80
2024/01/10 05:11:40;;;;;;;10.53;7.83;;;2.10;93.70;;;;;;5091177;28;20256;-80
2024/01/10 05:14:12;;;;;;;12.30;8.47;;;2.10;93.70;;;;;;5088093;28;20203;-80
2024/01/10 05:16:41;;;;;;;16.83;8.50;;;2.20;93.70;;;;;;5091357;28;21414;-80
2024/01/10 05:19:13;;;;;;;11.33;7.70;;;2.20;93.70;;;;;;5091872;28;20763;-80
2024/01/10 05:21:43;;;;;;;15.17;8.87;;;2.20;93.80;;;;;;5083025;28;20228;-80
2024/01/10 05:24:14;;;;;;;11.93;8.47;;;2.20;93.80;;;;;;5090147;28;20217;-80
2024/01/10 05:26:44;;;;;;;19.40;9.30;;;2.20;93.70;;;;;;5084631;28;20287;-80
2024/01/10 05:29:16;;;;;;;13.67;8.53;;;2.20;93.70;;;;;;5090682;28;20201;-80
2024/01/10 05:31:47;;;;;;;10.67;7.40;;;2.20;93.80;;;;;;5095578;28;20247;-80
2024/01/10 05:34:17;;;;;;;14.10;7.93;;;2.20;93.70;;;;;;5081876;28;20210;-80
2024/01/10 05:36:47;;;;;;;13.27;8.03;;;2.20;93.70;;;;;;5083684;28;20305;-80
2024/01/10 05:39:20;;;;;;;12.97;8.17;;;2.10;93.70;;;;;;5091687;28;20304;-80
2024/01/10 05:41:51;;;;;;;15.50;7.77;;;2.20;93.80;;;;;;5081958;28;20210;-80
2024/01/10 05:44:21;;;;;;;18.87;8.80;;;2.20;93.80;;;;;;5093265;28;20202;-80
2024/01/10 05:46:51;;;;;;;11.33;7.70;;;2.20;93.70;;;;;;5093922;28;20251;-81
2024/01/10 05:49:22;;;;;;;13.77;8.87;;;2.20;93.70;;;;;;5079864;28;20211;-80
2024/01/10 05:51:53;;;;;;;13.57;7.37;;;2.20;93.70;;;;;;5093360;28;20210;-80
2024/01/10 05:54:22;;;;;;;13.00;8.60;;;2.20;93.70;;;;;;5101832;28;20214;-79
2024/01/10 05:56:52;;;;;;;11.57;7.80;;;2.10;93.70;;;;;;5075948;28;20306;-79
2024/01/10 05:59:22;;;;;;;13.53;7.90;;;2.10;93.70;;;;;;5091245;28;20259;-80
2024/01/10 06:01:57;;;;;;;17.97;9.20;;;2.10;93.70;;;;;;5090090;28;20203;-79
2024/01/10 06:04:30;;;;;;;15.53;9.10;;;2.20;93.80;;;;;;5065044;28;20233;-79
2024/01/10 06:07:00;;;;;;;11.97;8.30;;;2.20;93.90;;;;;;5090651;28;20196;-79
2024/01/10 06:09:31;;;;;;;16.33;9.60;;;2.20;93.90;;;;;;5073435;28;20526;-79
2024/01/10 06:12:00;;;;;;;16.33;8.33;;;2.20;93.90;;;;;;5085219;28;20199;-79
2024/01/10 06:14:31;;;;;;;18.00;9.90;;;2.20;93.80;;;;;;5073964;28;20284;-79
2024/01/10 06:17:03;;;;;;;15.83;8.97;;;2.20;93.90;;;;;;5093609;28;20191;-80
2024/01/10 06:19:33;;;;;;;15.70;8.93;;;2.20;93.80;;;;;;5086665;28;20224;-79
2024/01/10 06:22:04;;;;;;;18.83;10.27;;;2.20;93.70;;;;;;5086034;28;20220;-79
2024/01/10 06:24:34;;;;;;;18.23;8.33;;;2.30;93.60;;;;;;5082363;28;20205;-80
2024/01/10 06:27:09;;;;;;;12.67;8.30;;;2.30;93.40;;;;;;5087474;28;20257;-79
2024/01/10 06:29:40;;;;;;;13.03;8.13;;;2.30;93.30;;;;;;5087019;28;20210;-80
2024/01/10 06:32:11;;;;;;;16.70;8.53;;;2.30;93.30;;;;;;5085672;28;20211;-80
2024/01/10 06:34:42;;;;;;;13.50;8.37;;;2.20;93.30;;;;;;5085991;28;20292;-80
2024/01/10 06:37:13;;;;;;;17.90;9.50;;;2.30;93.40;;;;;;5080308;28;20203;-80
2024/01/10 06:39:44;;;;;;;14.57;9.00;;;2.30;93.50;;;;;;5071945;28;20331;-80
2024/01/10 06:42:16;;;;;;;19.80;9.13;;;2.30;93.50;;;;;;5083706;28;20217;-80
2024/01/10 06:44:47;;;;;;;13.43;9.37;;;2.30;93.50;;;;;;5085124;28;20208;-80
2024/01/10 06:47:22;;;;;;;14.57;8.77;;;2.30;93.50;;;;;;5087214;28;20197;-82
2024/01/10 06:49:53;;;;;;;12.90;8.37;;;2.30;93.50;;;;;;5087978;28;20193;-79
2024/01/10 06:52:27;;;;;;;15.47;8.20;;;2.30;93.50;;;;;;5092360;28;20226;-80
2024/01/10 06:54:57;;;;;;;17.17;8.70;;;2.30;93.50;;;;;;5093060;28;20195;-80
2024/01/10 06:57:27;;;;;;;13.83;8.57;;;2.20;93.50;;;;;;5071634;28;20258;-81
2024/01/10 06:59:58;;;;;;;14.43;9.27;;;2.20;93.50;;;;;;5086627;28;20221;-80
2024/01/10 07:02:27;;;;;;;14.67;8.73;;;2.20;93.60;;;;;;5086192;28;20218;-80
2024/01/10 07:04:57;;;;;;;13.07;8.30;;;2.20;93.60;;;;;;5077786;28;20364;-80
2024/01/10 07:07:28;;;;;;;14.67;9.17;;;2.20;93.70;;;;;;5076431;28;20201;-80
2024/01/10 07:10:04;;;;;;;14.77;9.53;;;2.20;93.80;;;;;;5082883;28;20210;-80
2024/01/10 07:12:35;;;;;;;14.10;8.90;;;2.20;93.80;;;;;;5074973;28;20229;-80
2024/01/10 07:15:06;;;;;;;15.00;9.87;;;2.20;93.90;;;;;;5084384;28;20289;-80
2024/01/10 07:17:36;;;;;;;15.77;9.47;;;2.20;93.90;;;;;;5093984;28;20199;-81
2024/01/10 07:20:07;;;;;;;16.17;9.30;;;2.30;94.00;;;;;;5091098;28;20680;-81
2024/01/10 07:22:43;;;;;;;13.50;9.93;;;2.30;94.00;;;;;;5089185;28;20203;-81
2024/01/10 07:25:17;;;;;;;14.43;9.30;;;2.40;94.10;;;;;;5083543;28;20233;-81
2024/01/10 07:27:49;;;;;;;18.10;10.47;;;2.40;94.10;;;;;;5086765;28;20241;-81
2024/01/10 07:30:19;;;;;;;19.37;11.07;;;2.50;94.10;;;;;;5088503;28;20356;-82
2024/01/10 07:32:49;;;;;;;20.67;10.97;;;2.60;94.20;;;;;;5095981;28;20195;-81
2024/01/10 07:35:20;;;;;;;19.10;11.63;;;2.60;94.10;;;;;;5073100;28;20201;-81
2024/01/10 07:37:51;;;;;;;23.57;11.67;;;2.70;94.20;;;;;;5074051;28;20611;-81
2024/01/10 07:40:25;;;;;;;18.23;10.70;;;2.80;94.10;;;;;;5091113;28;20245;-81
2024/01/10 07:42:55;;;;;;;18.30;11.17;;;2.80;94.10;;;;;;5094148;28;20276;-81
2024/01/10 07:45:26;;;;;;;17.50;10.13;;;2.90;94.10;;;;;;5083521;28;20207;-81
2024/01/10 07:47:56;;;;;;;15.63;10.27;;;2.90;94.10;;;;;;5088891;28;20217;-81
2024/01/10 07:50:29;;;;;;;20.47;11.20;;;3.00;94.10;;;;;;5077598;28;20208;-81
2024/01/10 07:53:01;;;;;;;18.10;10.40;;;3.00;94.10;;;;;;5084128;28;20220;-81
2024/01/10 07:55:30;;;;;;;16.57;9.23;;;3.10;94.00;;;;;;5091480;28;20219;-81
2024/01/10 07:58:01;;;;;;;17.00;10.70;;;3.20;94.10;;;;;;5088063;28;20656;-81
2024/01/10 08:00:31;;;;;;;16.73;9.27;;;3.30;94.10;;;;;;5086289;28;20381;-81
2024/01/10 08:03:01;;;;;;;13.80;9.07;;;3.30;94.00;;;;;;5086492;28;20548;-81
2024/01/10 08:05:30;;;;;;;14.97;9.83;;;3.30;94.20;;;;;;5081529;28;20203;-81
2024/01/10 08:08:07;;;;;;;14.53;10.33;;;3.40;94.00;;;;;;5070839;28;20213;-81
2024/01/10 08:10:38;;;;;;;18.33;11.13;;;3.40;93.90;;;;;;5084133;28;20222;-81
2024/01/10 08:13:10;;;;;;;16.17;9.60;;;3.50;93.90;;;;;;5075435;28;20204;-81
2024/01/10 08:15:44;;;;;;;18.70;10.77;;;3.60;94.00;;;;;;5092854;28;20650;-81
2024/01/10 08:18:14;;;;;;;17.40;9.93;;;3.60;93.90;;;;;;5098574;28;20204;-81
2024/01/10 08:20:46;;;;;;;18.23;10.27;;;3.70;93.90;;;;;;5075691;28;20253;-80
2024/01/10 08:23:17;;;;;;;20.97;11.77;;;3.80;93.90;;;;;;5081568;28;20262;-80
2024/01/10 08:25:51;;;;;;;17.20;10.43;;;3.80;93.80;;;;;;5088124;28;20200;-81
2024/01/10 08:28:21;;;;;;;17.40;10.53;;;3.90;93.80;;;;;;5080509;28;20207;-81
2024/01/10 08:30:53;;;;;;;15.83;9.50;;;3.90;93.70;;;;;;5082021;28;20197;-81
2024/01/10 08:33:31;;;;;;;14.73;9.47;;;3.90;93.60;;;;;;5084653;28;20246;-81
2024/01/10 08:36:02;;;;;;;16.53;10.27;;;4.00;93.50;;;;;;5071662;28;20220;-81
2024/01/10 08:38:32;;;;;;;18.20;10.03;;;4.00;93.40;;;;;;5064893;28;20239;-81
2024/01/10 08:41:08;;;;;;;16.27;9.17;;;4.10;93.30;;;;;;5106144;28;20224;-81
2024/01/10 08:43:41;;;;;;;15.30;9.10;;;4.10;93.20;;;;;;5075716;28;20220;-81
2024/01/10 08:46:12;;;;;;;16.67;10.90;;;4.20;93.20;;;;;;5090914;28;20196;-81
2024/01/10 08:48:44;;;;;;;17.13;9.93;;;4.20;93.10;;;;;;5070284;28;20207;-81
2024/01/10 08:51:18;;;;;;;14.73;9.17;;;4.30;93.40;;;;;;5097536;28;20206;-81
2024/01/10 08:53:48;;;;;;;15.00;10.03;;;4.30;93.10;;;;;;5092494;28;20200;-81
2024/01/10 08:56:19;;;;;;;14.13;8.27;;;4.40;93.00;;;;;;5083656;28;20550;-81
2024/01/10 08:58:50;;;;;;;13.43;9.63;;;4.40;92.90;;;;;;5093831;28;20239;-81
2024/01/10 09:01:20;;;;;;;18.57;10.50;;;4.50;92.80;;;;;;5110794;28;20235;-81
2024/01/10 09:03:51;;;;;;;17.47;10.37;;;4.60;92.70;;;;;;5097655;28;20200;-81
2024/01/10 09:06:21;;;;;;;19.43;10.73;;;4.60;92.70;;;;;;5094338;28;20193;-81
2024/01/10 09:08:52;;;;;;;17.83;10.60;;;4.70;92.60;;;;;;5091707;28;20270;-81
2024/01/10 09:11:25;;;;;;;17.80;10.97;;;4.70;92.50;;;;;;5076587;28;20214;-81
2024/01/10 09:13:57;;;;;;;17.63;9.90;;;4.70;92.50;;;;;;5082821;28;20236;-81
2024/01/10 09:16:27;;;;;;;14.93;10.23;;;4.80;92.40;;;;;;5095827;28;20636;-81
2024/01/10 09:19:02;;;;;;;15.33;10.17;;;4.90;92.40;;;;;;5097503;28;20567;-81
2024/01/10 09:21:36;;;;;;;18.33;10.90;;;4.90;92.30;;;;;;5105364;28;20207;-81
2024/01/10 09:24:08;;;;;;;17.43;10.30;;;5.00;92.30;;;;;;5088551;28;20218;-81
2024/01/10 09:26:53;;;;;;;28.80;11.43;;;5.10;92.20;;;;;;5083216;28;20207;-81
2024/01/10 09:29:25;;;;;;;15.03;10.00;;;5.20;92.10;;;;;;5072509;28;20265;-81
2024/01/10 09:31:56;;;;;;;21.87;11.20;;;5.20;91.90;;;;;;5092499;28;20538;-81
2024/01/10 09:34:26;;;;;;;14.83;9.43;;;5.20;91.80;;;;;;5095844;28;20227;-81
2024/01/10 09:37:01;;;;;;;19.10;9.33;;;5.30;91.60;;;;;;5109520;28;20268;-81
2024/01/10 09:39:31;;;;;;;18.07;10.03;;;5.30;91.50;;;;;;5088795;28;20330;-81
2024/01/10 09:42:02;;;;;;;17.20;11.03;;;5.40;91.30;;;;;;5088356;28;20311;-81
2024/01/10 09:44:34;;;;;;;16.93;11.67;;;5.50;91.20;;;;;;5084584;28;20645;-81
2024/01/10 09:47:05;;;;;;;17.80;11.20;;;5.50;90.70;;;;;;5083316;28;20204;-80
2024/01/10 09:49:35;;;;;;;18.13;10.93;;;5.60;90.50;;;;;;5092118;28;20205;-81
2024/01/10 09:52:15;;;;;;;17.43;10.83;;;5.70;90.50;;;;;;5083641;28;20595;-81
2024/01/10 09:54:47;;;;;;;15.10;10.63;;;5.70;89.60;;;;;;5082080;28;20197;-81
2024/01/10 09:57:16;;;;;;;14.40;9.63;;;5.80;89.00;;;;;;5082032;28;20260;-81
2024/01/10 09:59:47;;;;;;;18.37;10.37;;;5.90;88.90;;;;;;5085277;28;20219;-81
2024/01/10 10:02:20;;;;;;;19.57;10.13;;;6.00;87.70;;;;;;5083977;28;20225;-81
2024/01/10 10:05:06;;;;;;;14.70;9.27;;;6.10;87.40;;;;;;5068387;28;20200;-82
2024/01/10 10:07:55;;;;;;;14.03;10.13;;;6.10;86.70;;;;;;5079570;28;20229;-82
2024/01/10 10:10:27;;;;;;;15.33;10.10;;;6.20;86.30;;;;;;5068444;28;20202;-81
2024/01/10 10:12:58;;;;;;;17.67;10.17;;;6.30;85.00;;;;;;5086780;28;20209;-82
2024/01/10 10:15:28;;;;;;;16.30;10.40;;;6.40;84.60;;;;;;5082850;28;20217;-82
2024/01/10 10:17:58;;;;;;;14.20;9.50;;;6.40;84.30;;;;;;5085260;28;20205;-82
2024/01/10 10:20:37;;;;;;;15.77;9.63;;;6.40;83.50;;;;;;5087347;28;20218;-83
2024/01/10 10:23:12;;;;;;;16.87;9.87;;;6.40;83.20;;;;;;5088643;28;20283;-82
2024/01/10 10:25:47;;;;;;;15.43;10.73;;;6.40;83.70;;;;;;5074543;28;20293;-82
2024/01/10 10:28:17;;;;;;;14.67;9.40;;;6.40;84.00;;;;;;5090263;28;20251;-81
2024/01/10 10:31:03;;;;;;;14.47;9.77;;;6.40;84.00;;;;;;5074252;28;20653;-81
2024/01/10 10:33:36;;;;;;;16.80;11.37;;;6.40;83.20;;;;;;5089302;28;20202;-82
2024/01/10 10:36:08;;;;;;;17.17;10.20;;;6.40;83.10;;;;;;5090934;28;20203;-83
2024/01/10 10:38:37;;;;;;;14.73;9.40;;;6.40;83.00;;;;;;5091646;28;20234;-82
2024/01/10 10:41:11;;;;;;;16.27;9.40;;;6.30;83.30;;;;;;5105385;27;20248;-83
2024/01/10 10:43:42;;;;;;;15.40;8.97;;;6.40;83.70;;;;;;5088451;28;20207;-83
2024/01/10 10:46:12;;;;;;;16.20;10.27;;;6.40;83.90;;;;;;5078737;28;20289;-82
2024/01/10 10:48:47;;;;;;;17.30;9.20;;;6.40;83.80;;;;;;5075838;28;20241;-81
2024/01/10 10:51:44;;;;;;;18.60;10.23;;;6.50;83.80;;;;;;5107679;28;20201;-82
2024/01/10 10:54:19;;;;;;;14.47;9.03;;;6.50;83.80;;;;;;5093911;28;20299;-83
2024/01/10 10:56:52;;;;;;;13.97;8.83;;;6.60;83.40;;;;;;5078402;28;20188;-82
2024/01/10 10:59:26;;;;;;;14.97;9.17;;;6.60;83.60;;;;;;5091034;28;20562;-82
2024/01/10 11:02:09;;;;;;;14.77;8.67;;;6.60;83.90;;;;;;5095971;28;20220;-83
2024/01/10 11:04:41;;;;;;;14.67;9.77;;;6.60;83.80;;;;;;5072281;28;20793;-82
2024/01/10 11:07:11;;;;;;;13.17;8.73;;;6.60;83.20;;;;;;5080944;28;20292;-82
2024/01/10 11:09:48;;;;;;;16.57;9.03;;;6.60;83.40;;;;;;5092350;28;20591;-83
2024/01/10 11:12:49;;;;;;;20.57;9.90;;;6.60;83.90;;;;;;5087928;28;20197;-83
2024/01/10 11:15:35;;;;;;;15.57;9.10;;;6.70;84.00;;;;;;5076537;28;20653;-82
2024/01/10 11:18:39;;;;;;;15.10;9.60;;;6.60;83.60;;;;;;5079604;28;20205;-82
2024/01/10 11:21:45;;;;;;;15.33;8.63;;;6.70;84.00;;;;;;5093310;28;20315;-83
2024/01/10 11:24:19;;;;;;;13.37;8.63;;;6.60;83.70;;;;;;5076881;28;20625;-83
2024/01/10 11:26:49;;;;;;;18.13;9.03;;;6.60;83.60;;;;;;5078030;28;20200;-83
2024/01/10 11:29:31;;;;;;;15.70;8.93;;;6.60;83.50;;;;;;5097800;28;20682;-82
2024/01/10 11:32:01;;;;;;;13.27;7.97;;;6.60;83.30;;;;;;5074940;28;20208;-83
2024/01/10 11:34:31;;;;;;;13.17;8.47;;;6.60;82.40;;;;;;5091191;28;20224;-83
2024/01/10 11:37:11;;;;;;;12.97;8.43;;;6.60;81.60;;;;;;5074247;28;20611;-82
2024/01/10 11:39:44;;;;;;;11.17;7.70;;;6.50;80.60;;;;;;5073615;28;20248;-82
2024/01/10 11:42:43;;;;;;;13.80;8.60;;;6.50;80.00;;;;;;5087205;28;20235;-82
2024/01/10 11:45:37;;;;;;;11.40;7.17;;;6.50;80.40;;;;;;5071291;28;20656;-83
2024/01/10 11:48:08;;;;;;;13.67;8.30;;;6.50;79.70;;;;;;5066852;28;20205;-83
2024/01/10 11:50:42;;;;;;;12.40;7.57;;;6.50;79.80;;;;;;5084886;28;20209;-82
2024/01/10 11:53:11;;;;;;;12.07;7.13;;;6.50;79.80;;;;;;5085302;28;20611;-83
2024/01/10 11:55:54;;;;;;;13.90;8.77;;;6.50;79.40;;;;;;5074911;28;20621;-83
2024/01/10 11:58:24;;;;;;;12.03;7.37;;;6.50;79.20;;;;;;5088051;28;20650;-82
2024/01/10 12:00:55;;;;;;;13.97;8.97;;;6.50;78.70;;;;;;5080823;28;20324;-82
2024/01/10 12:03:26;;;;;;;11.80;7.83;;;6.50;78.80;;;;;;5075790;28;20223;-83
2024/01/10 12:05:57;;;;;;;13.33;7.80;;;6.50;77.90;;;;;;5085662;28;20210;-83
2024/01/10 12:08:31;;;;;;;14.90;8.37;;;6.60;78.20;;;;;;5077807;28;20209;-82
2024/01/10 12:11:02;;;;;;;11.67;7.53;;;6.60;78.00;;;;;;5086345;28;20210;-81
2024/01/10 12:13:32;;;;;;;13.53;8.00;;;6.60;77.40;;;;;;5081123;28;20263;-82
2024/01/10 12:16:06;;;;;;;10.63;7.10;;;6.70;77.70;;;;;;5068567;28;20208;-82
2024/01/10 12:18:36;;;;;;;12.00;8.63;;;6.70;77.80;;;;;;5076305;28;20267;-82
2024/01/10 12:21:08;;;;;;;13.07;7.87;;;6.80;77.10;;;;;;5067774;28;20229;-82
2024/01/10 12:23:40;;;;;;;13.27;7.83;;;6.80;76.30;;;;;;5092989;28;20232;-82
2024/01/10 12:26:13;;;;;;;11.77;7.20;;;6.80;76.20;;;;;;5090639;28;20207;-82
2024/01/10 12:28:54;;;;;;;13.73;7.57;;;6.80;76.40;;;;;;5097269;28;20208;-82
2024/01/10 12:31:28;;;;;;;13.37;8.50;;;6.90;76.30;;;;;;5087030;28;20701;-82
2024/01/10 12:34:01;;;;;;;11.20;7.83;;;6.90;76.00;;;;;;5085122;28;20206;-81
2024/01/10 12:36:39;;;;;;;11.57;7.80;;;7.00;76.30;;;;;;5088132;28;20212;-82
2024/01/10 12:39:12;;;;;;;14.30;8.40;;;7.00;75.40;;;;;;5080159;28;20320;-82
2024/01/10 12:41:45;;;;;;;12.07;7.33;;;7.00;75.30;;;;;;5094425;28;20572;-82
2024/01/10 12:44:15;;;;;;;13.30;7.40;;;7.00;75.80;;;;;;5076251;28;20209;-82
2024/01/10 12:46:52;;;;;;;12.23;8.13;;;7.10;75.80;;;;;;5092526;28;20212;-82
2024/01/10 12:49:26;;;;;;;11.87;7.87;;;7.10;75.30;;;;;;5068330;28;20202;-83
2024/01/10 12:51:55;;;;;;;14.53;8.63;;;7.10;75.20;;;;;;5078279;28;20205;-81
2024/01/10 12:54:26;;;;;;;14.07;8.50;;;7.10;74.00;;;;;;5083927;28;20211;-82
2024/01/10 12:56:57;;;;;;;17.23;8.50;;;7.00;73.60;;;;;;5077617;28;20206;-82
2024/01/10 12:59:28;;;;;;;12.80;8.40;;;7.00;74.10;;;;;;5087849;28;20306;-83
2024/01/10 13:01:58;;;;;;;12.37;8.17;;;7.10;74.50;;;;;;5093058;28;20214;-83
2024/01/10 13:04:31;;;;;;;12.37;8.77;;;7.10;74.80;;;;;;5086701;28;20202;-82
2024/01/10 13:07:01;;;;;;;10.27;7.50;;;7.10;75.00;;;;;;5088251;28;20191;-83
2024/01/10 13:09:32;;;;;;;12.50;8.03;;;7.10;74.20;;;;;;5085874;28;20578;-82
2024/01/10 13:12:06;;;;;;;12.90;8.40;;;7.10;73.40;;;;;;5077455;28;20213;-84